Flight Track Log - Related Links

Times and Time Zones

All times are in EDT time to prevent confusion due to time zone crossing. See the AFL150 flight status page for this flight to view local times or setup timezone preferences in your user account.

Time Position Orientation Groundspeed Altitude Reporting Facility
EDT Latitude Longitude Course Direction KTS MPH feet Rate Location/Type
Tue 06:40:24 AM 55.9800 37.4720 75° East 178 205 2,200  Level FlightAware ADS-B
Tue 06:40:54 AM 55.9860 37.5190 77° East 209 241 2,700 1,091 Climbing FlightAware ADS-B
Tue 06:41:19 AM 55.9930 37.5640 74° East 237 273 3,200 1,200 Climbing FlightAware ADS-B
Tue 06:41:44 AM 56.0010 37.6140 74° East 267 307 3,700 1,543 Climbing FlightAware ADS-B
Tue 06:41:54 AM 56.0040 37.6350 76° East 270 311 4,100 2,400 Climbing FlightAware ADS-B
Tue 06:42:09 AM 56.0140 37.6640 58° Northeast 276 318 4,700 2,400 Climbing FlightAware ADS-B
Tue 06:42:24 AM 56.0290 37.6830 35° Northeast 278 320 5,300 2,200 Climbing FlightAware ADS-B
Tue 06:42:39 AM 56.0490 37.6910 13° North 283 326 5,800 1,350 Climbing FlightAware ADS-B
Tue 06:43:04 AM 56.0780 37.6690 337° Northwest 280 322 6,200 933 Climbing FlightAware ADS-B
Tue 06:43:24 AM 56.0910 37.6290 300° West 278 320 6,500 800 Climbing FlightAware ADS-B
Tue 06:43:49 AM 56.1070 37.5800 300° West 282 325 6,800 655 Climbing FlightAware ADS-B
Tue 06:44:19 AM 56.1330 37.5290 312° West 282 325 7,100 1,200 Climbing FlightAware ADS-B
Tue 06:44:44 AM 56.1550 37.4850 312° West 285 328 7,900 2,057 Climbing FlightAware ADS-B
Tue 06:44:54 AM 56.1640 37.4670 312° West 287 330 8,300 837 Climbing FlightAware ADS-B
Tue 06:45:27 AM 56.1880 37.4160 310° West 288 331 8,500 727 Climbing FlightAware ADS-B
Tue 06:46:00 AM 56.2020 37.3880 312° West 290 334 9,100 2,824 Climbing FlightAware ADS-B
Tue 06:46:35 AM 56.2180 37.2500 282° West 318 366 11,700 2,959 Climbing FlightAware ADS-B
Tue 06:47:13 AM 56.2190 37.1700 271° West 324 373 12,700 1,950 Climbing FlightAware ADS-B
Tue 06:47:55 AM 56.2090 37.0600 261° West 328 377 14,300 1,976 Climbing FlightAware ADS-B
Tue 06:48:35 AM 56.1990 36.9610 260° West 341 392 15,400 2,022 Climbing FlightAware ADS-B
Tue 06:49:24 AM 56.1670 36.8200 248° West 347 399 17,300 2,045 Climbing FlightAware ADS-B
Tue 06:50:03 AM 56.1320 36.7280 236° Southwest 356 410 18,400 1,704 Climbing FlightAware ADS-B
Tue 06:50:45 AM 56.0910 36.6200 236° Southwest 370 426 19,600 1,624 Climbing FlightAware ADS-B
Tue 06:51:28 AM 56.0490 36.5110 235° Southwest 379 436 20,700 1,590 Climbing FlightAware ADS-B
Tue 06:52:08 AM 56.0090 36.4090 235° Southwest 386 444 21,800 1,663 Climbing FlightAware ADS-B
Tue 06:52:51 AM 55.9620 36.2970 233° Southwest 393 452 23,000 1,425 Climbing FlightAware ADS-B
Tue 06:53:28 AM 55.9280 36.2010 238° Southwest 398 458 23,700 1,176 Climbing FlightAware ADS-B
Tue 06:53:42 AM 55.9230 36.1540 259° West 392 451 24,000 1,941 Climbing FlightAware ADS-B
Tue 06:54:02 AM 55.9370 36.0580 285° West 376 433 24,800 1,875 Climbing FlightAware ADS-B
Tue 06:54:46 AM 55.9860 35.9570 311° West 368 423 26,000 1,429 Climbing FlightAware ADS-B
Tue 06:55:26 AM 56.0330 35.8680 313° West 374 430 26,800 1,071 Climbing FlightAware ADS-B
Tue 06:56:10 AM 56.0850 35.7710 314° West 383 441 27,500 1,000 Climbing FlightAware ADS-B
Tue 06:56:50 AM 56.1350 35.6750 313° West 391 450 28,200 1,000 Climbing FlightAware ADS-B
Tue 06:57:34 AM 56.1890 35.5730 314° West 398 458 28,900 917 Climbing FlightAware ADS-B
Tue 06:58:02 AM 56.2320 35.5230 327° Northwest 399 459 29,300 750 Climbing FlightAware ADS-B
Tue 06:58:38 AM 56.2940 35.4890 343° North 408 470 29,700 714 Climbing FlightAware ADS-B
Tue 06:59:26 AM 56.3810 35.4380 342° North 415 478 30,300 708 Climbing FlightAware ADS-B
Tue 07:01:36 AM 56.6250 35.2980 342° North 439 505 31,800 763 Climbing FlightAware ADS-B
Tue 07:02:19 AM 56.7120 35.2470 342° North 440 506 32,500 867 Climbing FlightAware ADS-B
Tue 07:02:59 AM 56.7900 35.2010 342° North 443 510 33,000 600 Climbing FlightAware ADS-B
Tue 07:03:39 AM 56.8700 35.1540 342° North 450 518 33,300 420 Climbing FlightAware ADS-B
Tue 07:04:39 AM 56.9900 35.0820 342° North 461 531 33,700 442 Climbing FlightAware ADS-B
Tue 07:05:14 AM 57.0600 35.0400 342° North 468 539 34,000 225 Climbing FlightAware ADS-B
Tue 07:05:59 AM 57.1550 34.9830 342° North 479 551 34,000  Level FlightAware ADS-B
Tue 07:06:44 AM 57.2490 34.9260 342° North 481 554 34,000  Level FlightAware ADS-B
Tue 07:09:00 AM 57.3947 34.5342 305° West  Level Estimated
Tue 07:10:00 AM 57.4586 34.3604 304° West  Level Estimated
Tue 07:11:00 AM 57.5223 34.1859 304° West  Level Estimated
Tue 07:12:00 AM 57.5857 34.0109 304° West  Level Estimated
Tue 07:13:00 AM 57.6489 33.8352 304° West  Level Estimated
Tue 07:13:54 AM 58.1470 34.3420 304° West 481 554 34,000  Level FlightAware ADS-B
Tue 07:14:00 AM 57.7118 33.6590 304° West  Level Estimated
Tue 07:15:54 AM 58.3560 34.0500 304° West 481 554 34,000  Level FlightAware ADS-B
Tue 07:16:00 AM 58.2801 33.9675 304° West  Level Estimated
Tue 07:17:10 AM 58.4720 33.8720 321° Northwest 479 551 34,000  Level FlightAware ADS-B
Tue 07:17:55 AM 58.5480 33.7550 321° Northwest 479 551 34,000  Level FlightAware ADS-B
Tue 07:18:32 AM 58.5950 33.6810 321° Northwest 478 550 34,000  Level FlightAware ADS-B
Tue 07:19:12 AM 58.6700 33.5620 320° Northwest 477 549 34,000  Level FlightAware ADS-B
Tue 07:20:00 AM 58.7390 33.4510 320° Northwest 477 549 34,000  Level FlightAware ADS-B
Tue 07:20:35 AM 58.7990 33.3330 314° West 472 543 34,000  Level FlightAware ADS-B
Tue 07:22:48 AM 58.9910 32.9620 315° West 466 536 34,000  Level FlightAware ADS-B
Tue 07:23:28 AM 59.0730 32.8040 315° West 449 517 34,000  Level FlightAware ADS-B
Tue 07:24:07 AM 59.1280 32.6960 315° West 448 516 34,000  Level FlightAware ADS-B
Tue 07:24:50 AM 59.1940 32.5650 315° West 446 513 34,000  Level FlightAware ADS-B
Tue 07:25:25 AM 59.2420 32.4690 314° West 446 513 34,000  Level FlightAware ADS-B
Tue 07:26:22 AM 59.3250 32.3010 314° West 449 517 34,000  Level FlightAware ADS-B
Tue 07:27:01 AM 59.3810 32.1880 314° West 453 521 34,000  Level FlightAware ADS-B
Tue 07:27:43 AM 59.4360 32.0500 308° West 450 518 34,000  Level FlightAware ADS-B
Tue 07:28:23 AM 59.4780 31.9110 301° West 447 514 34,000  Level FlightAware ADS-B
Tue 07:29:13 AM 59.5210 31.7200 294° West 446 513 34,000  Level FlightAware ADS-B
Tue 07:29:52 AM 59.5530 31.5770 294° West 446 513 34,000  Level FlightAware ADS-B
Tue 07:31:20 AM 59.6170 31.2770 293° West 444 511 34,000  Level FlightAware ADS-B
Tue 07:32:15 AM 59.6610 31.0700 293° West 441 507 34,000  Level FlightAware ADS-B
Tue 07:32:55 AM 59.7050 30.8640 293° West 442 509 34,000  Level FlightAware ADS-B
Tue 07:33:35 AM 59.7360 30.7160 293° West 441 507 34,000  Level FlightAware ADS-B
Tue 07:34:15 AM 59.7630 30.5620 289° West 437 503 34,000  Level FlightAware ADS-B
Tue 07:35:00 AM 59.7820 30.3920 283° West 438 504 34,000  Level FlightAware ADS-B
Tue 07:35:30 AM 59.7870 30.2670 275° West 438 504 34,000  Level FlightAware ADS-B
Tue 07:36:15 AM 59.7820 30.0880 267° West 440 506 34,000  Level FlightAware ADS-B
Tue 07:36:55 AM 59.7640 29.9300 257° West 439 505 34,000  Level FlightAware ADS-B
Tue 07:37:30 AM 59.7470 29.7940 256° West 437 503 34,000  Level FlightAware ADS-B
Tue 07:38:10 AM 59.7280 29.6430 256° West 435 501 34,000  Level FlightAware ADS-B
Tue 07:38:55 AM 59.7060 29.4710 256° West 434 499 34,000  Level FlightAware ADS-B
Tue 07:39:25 AM 59.6900 29.3530 255° West 433 498 34,000  Level FlightAware ADS-B
Tue 07:40:10 AM 59.6680 29.1850 256° West 433 498 34,000  Level FlightAware ADS-B
Tue 07:40:50 AM 59.6480 29.0280 256° West 432 497 34,000 375 Level FlightAware ADS-B
Tue 07:41:30 AM 59.6320 28.8740 258° West 431 496 34,500 675 Climbing FlightAware ADS-B
Tue 07:42:10 AM 59.6320 28.7200 270° West 432 497 34,900 635 Climbing FlightAware ADS-B
Tue 07:42:55 AM 59.6460 28.5450 279° West 433 498 35,400 733 Climbing FlightAware ADS-B
Tue 07:43:40 AM 59.6710 28.3730 286° West 432 497 36,000 419 Climbing FlightAware ADS-B
Tue 07:44:21 AM 59.6930 28.2200 286° West 439 505 36,000  Level FlightAware ADS-B
Tue 07:44:56 AM 59.7140 28.0770 286° West 440 506 36,000  Level FlightAware ADS-B
Tue 07:45:40 AM 59.7370 27.9090 285° West 439 505 36,000  Level FlightAware ADS-B
Tue 07:46:16 AM 59.7560 27.7730 286° West 438 504 36,000  Level FlightAware ADS-B
Tue 07:46:57 AM 59.7780 27.6170 286° West 437 503 36,000  Level FlightAware ADS-B
Tue 07:47:36 AM 59.7990 27.4630 285° West 434 499 36,000  Level FlightAware ADS-B
Tue 07:48:16 AM 59.8200 27.3100 285° West 431 496 36,000  Level FlightAware ADS-B
Tue 07:48:52 AM 59.8380 27.1740 285° West 430 495 36,000  Level FlightAware ADS-B
Tue 07:49:38 AM 59.8620 26.9930 285° West 431 496 36,000  Level FlightAware ADS-B
Tue 07:50:18 AM 59.8820 26.8430 285° West 430 495 36,000  Level FlightAware ADS-B
Tue 07:51:02 AM 59.9040 26.6730 285° West 431 496 36,000  Level FlightAware ADS-B
Tue 07:51:42 AM 59.9240 26.5180 285° West 435 501 36,000  Level FlightAware ADS-B
Tue 07:52:22 AM 59.9460 26.3640 286° West 437 503 36,000  Level FlightAware ADS-B
Tue 07:53:06 AM 59.9820 26.2040 294° West 439 505 36,000  Level FlightAware ADS-B
Tue 07:53:42 AM 60.0200 26.0800 302° West 441 507 36,000  Level FlightAware ADS-B
Tue 07:54:27 AM 60.0670 25.9280 302° West 439 505 36,000  Level FlightAware ADS-B
Tue 07:55:06 AM 60.1080 25.7890 301° West 438 504 36,000  Level FlightAware ADS-B
Tue 07:55:50 AM 60.1550 25.6350 302° West 436 502 36,000  Level FlightAware ADS-B
Tue 07:56:30 AM 60.1950 25.4990 301° West 434 499 36,000  Level FlightAware ADS-B
Tue 07:57:14 AM 60.2410 25.3480 302° West 434 499 36,000  Level FlightAware ADS-B
Tue 07:57:54 AM 60.2820 25.2080 301° West 434 499 36,000  Level FlightAware ADS-B
Tue 07:58:38 AM 60.3270 25.0560 301° West 434 499 36,000  Level FlightAware ADS-B
Tue 07:59:18 AM 60.3670 24.9180 300° West 433 498 36,000  Level FlightAware ADS-B
Tue 08:00:00 AM 60.4100 24.7720 301° West 433 498 36,000  Level FlightAware ADS-B
Tue 08:00:44 AM 60.4550 24.6170 301° West 434 499 36,000  Level FlightAware ADS-B
Tue 08:01:24 AM 60.4940 24.4790 300° West 434 499 36,000  Level FlightAware ADS-B
Tue 08:02:08 AM 60.5380 24.3240 300° West 434 499 36,000  Level FlightAware ADS-B
Tue 08:02:48 AM 60.5790 24.1820 300° West 434 499 36,000  Level FlightAware ADS-B
Tue 08:03:30 AM 60.6200 24.0340 300° West 435 501 36,000  Level FlightAware ADS-B
Tue 08:04:14 AM 60.6630 23.8790 300° West 434 499 36,000  Level FlightAware ADS-B
Tue 08:04:54 AM 60.7030 23.7370 300° West 434 499 36,000  Level FlightAware ADS-B
Tue 08:05:30 AM 60.7390 23.6080 300° West 434 499 36,000  Level FlightAware ADS-B
Tue 08:06:14 AM 60.7790 23.4600 299° West 435 501 36,000  Level FlightAware ADS-B
Tue 08:06:54 AM 60.8180 23.3170 299° West 435 501 36,000  Level FlightAware ADS-B
Tue 08:07:30 AM 60.8540 23.1850 299° West 435 501 36,000  Level FlightAware ADS-B
Tue 08:08:10 AM 60.8950 23.0330 299° West 431 496 36,000  Level FlightAware ADS-B
Tue 08:08:54 AM 60.9350 22.8810 298° West 430 495 36,000  Level FlightAware ADS-B
Tue 08:09:28 AM 60.9690 22.7550 299° West 430 495 36,000  Level FlightAware ADS-B
Tue 08:10:06 AM 61.0030 22.6260 299° West 430 495 36,000  Level FlightAware ADS-B
Tue 08:10:46 AM 61.0410 22.4820 299° West 430 495 36,000  Level FlightAware ADS-B
Tue 08:11:33 AM 61.0860 22.3100 298° West 431 496 36,000  Level FlightAware ADS-B
Tue 08:12:18 AM 61.1290 22.1430 298° West 432 497 36,000  Level FlightAware ADS-B
Tue 08:13:08 AM 61.1750 21.9620 298° West 428 493 36,000  Level FlightAware ADS-B
Tue 08:13:53 AM 61.2170 21.7980 298° West 428 493 36,000  Level FlightAware ADS-B
Tue 08:14:34 AM 61.2520 21.6600 298° West 426 490 36,000  Level FlightAware ADS-B
Tue 08:15:16 AM 61.2930 21.4960 298° West 429 494 36,000  Level FlightAware ADS-B
Tue 08:16:00 AM 61.3340 21.3350 298° West 430 495 36,000  Level FlightAware ADS-B
Tue 08:16:45 AM 61.3740 21.1730 297° West 431 496 36,000  Level FlightAware ADS-B
Tue 08:17:25 AM 61.4100 21.0260 297° West 430 495 36,000  Level FlightAware ADS-B
Tue 08:18:05 AM 61.4460 20.8810 297° West 428 493 36,000  Level FlightAware ADS-B
Tue 08:18:40 AM 61.4770 20.7520 297° West 428 493 36,000  Level FlightAware ADS-B
Tue 08:19:26 AM 61.5180 20.5790 296° West 425 489 36,000  Level FlightAware ADS-B
Tue 08:20:07 AM 61.5550 20.4270 297° West 426 490 36,000  Level FlightAware ADS-B
Tue 08:20:47 AM 61.5880 20.2880 297° West 426 490 36,000  Level FlightAware ADS-B
Tue 08:21:32 AM 61.6290 20.1140 296° West 427 491 36,000  Level FlightAware ADS-B
Tue 08:22:12 AM 61.6640 19.9630 296° West 428 493 36,000  Level FlightAware ADS-B
Tue 08:22:52 AM 61.6970 19.8210 296° West 429 494 36,000  Level FlightAware ADS-B
Tue 08:23:28 AM 61.7290 19.6870 297° West 429 494 36,000  Level FlightAware ADS-B
Tue 08:24:08 AM 61.7620 19.5410 296° West 429 494 36,000  Level FlightAware ADS-B
Tue 08:24:53 AM 61.8040 19.3720 298° West 430 495 36,000  Level FlightAware ADS-B
Tue 08:25:39 AM 61.8700 19.2280 314° West 430 495 36,000  Level FlightAware ADS-B
Tue 08:26:20 AM 61.9260 19.1090 315° West 431 496 36,000  Level FlightAware ADS-B
Tue 08:27:05 AM 61.9920 18.9710 316° Northwest 432 497 36,000  Level FlightAware ADS-B
Tue 08:27:46 AM 62.0500 18.8480 315° West 432 497 36,000  Level FlightAware ADS-B
Tue 08:28:32 AM 62.1110 18.7180 315° West 434 499 36,000  Level FlightAware ADS-B
Tue 08:29:07 AM 62.1580 18.6150 314° West 436 502 36,000  Level FlightAware ADS-B
Tue 08:29:56 AM 62.2340 18.4520 315° West 434 499 36,000  Level FlightAware ADS-B
Tue 08:30:34 AM 62.2880 18.3350 315° West 435 501 36,000  Level FlightAware ADS-B
Tue 08:31:18 AM 62.3480 18.2030 314° West 434 499 36,000  Level FlightAware ADS-B
Tue 08:32:02 AM 62.4100 18.0670 315° West 434 499 36,000  Level FlightAware ADS-B
Tue 08:32:42 AM 62.4670 17.9410 314° West 434 499 36,000  Level FlightAware ADS-B
Tue 08:33:26 AM 62.5280 17.8050 314° West 432 497 36,000  Level FlightAware ADS-B
Tue 08:34:06 AM 62.5830 17.6820 314° West 431 496 36,000  Level FlightAware ADS-B
Tue 08:34:50 AM 62.6440 17.5450 314° West 432 497 36,000  Level FlightAware ADS-B
Tue 08:35:30 AM 62.7000 17.4200 314° West 434 499 36,000  Level FlightAware ADS-B
Tue 08:36:14 AM 62.7620 17.2790 314° West 433 498 36,000  Level FlightAware ADS-B
Tue 08:36:54 AM 62.8160 17.1540 313° West 432 497 36,000  Level FlightAware ADS-B
Tue 08:37:34 AM 62.8710 17.0280 314° West 432 497 36,000  Level FlightAware ADS-B
Tue 08:38:18 AM 62.9270 16.8980 313° West 432 497 36,000  Level FlightAware ADS-B
Tue 08:38:58 AM 62.9860 16.7600 313° West 432 497 36,000  Level FlightAware ADS-B
Tue 08:39:42 AM 63.0460 16.6200 313° West 434 499 36,000  Level FlightAware ADS-B
Tue 08:40:26 AM 63.1060 16.4770 313° West 434 499 36,000  Level FlightAware ADS-B
Tue 08:41:06 AM 63.1600 16.3490 313° West 434 499 36,000  Level FlightAware ADS-B
Tue 08:41:50 AM 63.2210 16.2040 313° West 436 502 36,000  Level FlightAware ADS-B
Tue 08:42:30 AM 63.2750 16.0730 313° West 436 502 36,000  Level FlightAware ADS-B
Tue 08:43:12 AM 63.3310 15.9370 313° West 432 497 36,000  Level FlightAware ADS-B
Tue 08:43:52 AM 63.3850 15.8060 313° West 431 496 36,000  Level FlightAware ADS-B
Tue 08:44:30 AM 63.4370 15.6790 313° West 432 497 36,000  Level FlightAware ADS-B
Tue 08:45:12 AM 63.4920 15.5430 312° West 431 496 36,000  Level FlightAware ADS-B
Tue 08:45:56 AM 63.5510 15.3970 312° West 429 494 36,000  Level FlightAware ADS-B
Tue 08:46:28 AM 63.5930 15.2910 312° West 431 496 36,000  Level FlightAware ADS-B
Tue 08:47:12 AM 63.6520 15.1430 312° West 431 496 36,000  Level FlightAware ADS-B
Tue 08:47:53 AM 63.7020 15.0170 312° West 429 494 36,000  Level FlightAware ADS-B
Tue 08:48:28 AM 63.7510 14.8930 312° West 428 493 36,000  Level FlightAware ADS-B
Tue 08:49:08 AM 63.8040 14.7570 311° West 430 495 36,000  Level FlightAware ADS-B
Tue 08:49:44 AM 63.8510 14.6360 311° West 432 497 36,000  Level FlightAware ADS-B
Tue 08:50:29 AM 63.9090 14.4860 311° West 433 498 36,000  Level FlightAware ADS-B
Tue 08:51:08 AM 63.9610 14.3500 311° West 430 495 36,000  Level FlightAware ADS-B
Tue 08:51:48 AM 64.0140 14.2110 311° West 431 496 36,000  Level FlightAware ADS-B
Tue 08:52:32 AM 64.0720 14.0600 311° West 429 494 36,000  Level FlightAware ADS-B
Tue 08:53:16 AM 64.1280 13.9110 311° West 430 495 36,000  Level FlightAware ADS-B
Tue 08:53:58 AM 64.1820 13.7660 311° West 429 494 36,000  Level FlightAware ADS-B
Tue 08:54:38 AM 64.2330 13.6280 310° West 427 491 36,000  Level FlightAware ADS-B
Tue 08:55:18 AM 64.2840 13.4910 311° West 424 488 36,000  Level FlightAware ADS-B
Tue 08:55:58 AM 64.3350 13.3520 310° West 422 486 36,000  Level FlightAware ADS-B
Tue 08:56:38 AM 64.3850 13.2140 310° West 422 486 36,000  Level FlightAware ADS-B
Tue 08:57:20 AM 64.4370 13.0700 310° West 423 487 36,000  Level FlightAware ADS-B
Tue 08:58:02 AM 64.4880 12.9280 310° West 423 487 36,000  Level FlightAware ADS-B
Tue 08:58:46 AM 64.5440 12.7720 310° West 423 487 36,000  Level FlightAware ADS-B
Tue 08:59:24 AM 64.5910 12.6400 310° West 424 488 36,000  Level FlightAware ADS-B
Tue 09:00:08 AM 64.6460 12.4840 310° West 426 490 36,000  Level FlightAware ADS-B
Tue 09:00:44 AM 64.6910 12.3570 310° West 424 488 36,000  Level FlightAware ADS-B
Tue 09:01:24 AM 64.7400 12.2170 309° West 423 487 36,000  Level FlightAware ADS-B
Tue 09:02:09 AM 64.7960 12.0550 309° West 425 489 36,000  Level FlightAware ADS-B
Tue 09:02:49 AM 64.8450 11.9130 309° West 426 490 36,000  Level FlightAware ADS-B
Tue 09:03:33 AM 64.8990 11.7540 309° West 426 490 36,000  Level FlightAware ADS-B
Tue 09:04:16 AM 64.9510 11.5990 308° West 426 490 36,000  Level FlightAware ADS-B
Tue 09:04:53 AM 64.9970 11.4640 309° West 427 491 36,000  Level FlightAware ADS-B
Tue 09:05:37 AM 65.0510 11.3030 309° West 427 491 36,000  Level FlightAware ADS-B
Tue 09:06:17 AM 65.1000 11.1550 308° West 427 491 36,000  Level FlightAware ADS-B
Tue 09:07:03 AM 65.1560 10.9870 308° West 427 491 36,000  Level FlightAware ADS-B
Tue 09:07:43 AM 65.2040 10.8380 308° West 428 493 36,000  Level FlightAware ADS-B
Tue 09:08:23 AM 65.2530 10.6890 308° West 429 494 36,000  Level FlightAware ADS-B
Tue 09:09:09 AM 65.3090 10.5170 308° West 430 495 36,000  Level FlightAware ADS-B
Tue 09:09:49 AM 65.3570 10.3660 307° West 430 495 36,000  Level FlightAware ADS-B
Tue 09:10:33 AM 65.4100 10.1980 307° West 431 496 36,000  Level FlightAware ADS-B
Tue 09:11:43 AM 65.4930 9.9370 308° West 430 495 36,000  Level FlightAware ADS-B
Tue 09:12:23 AM 65.5250 9.8340 307° West 430 495 36,000  Level FlightAware ADS-B
Tue 09:13:07 AM 65.5920 9.6180 307° West 431 496 36,000  Level FlightAware ADS-B
Tue 09:13:47 AM 65.6410 9.4580 307° West 431 496 36,000  Level FlightAware ADS-B
Tue 09:14:32 AM 65.6930 9.2880 307° West 429 494 36,000  Level FlightAware ADS-B
Tue 09:15:11 AM 65.7390 9.1360 306° West 429 494 36,000  Level FlightAware ADS-B
Tue 09:15:52 AM 65.7870 8.9780 307° West 429 494 36,000  Level FlightAware ADS-B
Tue 09:16:29 AM 65.8230 8.8550 306° West 429 494 36,000  Level FlightAware ADS-B
Tue 09:17:05 AM 65.8590 8.7350 306° West 429 494 36,000  Level FlightAware ADS-B
Tue 09:17:54 AM 65.9080 8.5710 306° West 429 494 36,000  Level FlightAware ADS-B
Tue 09:18:30 AM 65.9430 8.4510 306° West 429 494 36,000  Level FlightAware ADS-B
Tue 09:19:06 AM 65.9790 8.3300 306° West 429 494 36,000  Level FlightAware ADS-B
Tue 09:19:54 AM 66.0270 8.1690 306° West 429 494 36,000  Level FlightAware ADS-B
Tue 09:20:30 AM 66.0620 8.0480 306° West 429 494 36,000  Level FlightAware ADS-B
Tue 09:21:18 AM 66.1100 7.8860 306° West 429 494 36,000  Level FlightAware ADS-B
Tue 09:21:54 AM 66.1460 7.7650 306° West 429 494 36,000  Level FlightAware ADS-B
Tue 09:22:42 AM 66.1930 7.6030 306° West 429 494 36,000  Level FlightAware ADS-B
Tue 09:23:18 AM 66.2290 7.4810 306° West 429 494 36,000  Level FlightAware ADS-B
Tue 09:23:55 AM 66.2650 7.3560 306° West 429 494 36,000  Level FlightAware ADS-B
Tue 09:24:42 AM 66.3120 7.1960 306° West 429 494 36,000  Level FlightAware ADS-B
Tue 09:25:18 AM 66.3480 7.0740 306° West 429 494 36,000 11 Level FlightAware ADS-B
Tue 09:27:00 AM 66.3781 6.5994 279° West  Level Estimated
Tue 09:28:00 AM 66.3951 6.3197 279° West  Level Estimated
Tue 09:29:00 AM 66.4116 6.0396 279° West  Level Estimated
Tue 09:30:00 AM 66.4276 5.7592 278° West  Level Estimated
Tue 09:31:00 AM 66.4431 5.4784 278° West  Level Estimated
Tue 09:32:00 AM 66.4581 5.1973 278° West  Level Estimated
Tue 09:33:00 AM 66.4726 4.9158 277° West  Level Estimated
Tue 09:34:00 AM 66.4866 4.6340 277° West  Level Estimated
Tue 09:35:00 AM 66.5001 4.3519 277° West  Level Estimated
Tue 09:36:00 AM 66.5131 4.0695 277° West  Level Estimated
Tue 09:37:00 AM 66.5255 3.7868 276° West  Level Estimated
Tue 09:38:00 AM 66.5375 3.5038 276° West  Level Estimated
Tue 09:39:00 AM 66.5489 3.2206 276° West  Level Estimated
Tue 09:40:00 AM 66.5599 2.9371 276° West  Level Estimated
Tue 09:41:00 AM 66.5703 2.6534 275° West  Level Estimated
Tue 09:42:00 AM 66.5802 2.3694 275° West  Level Estimated
Tue 09:43:00 AM 66.5896 2.0853 275° West  Level Estimated
Tue 09:44:00 AM 66.5985 1.8009 275° West  Level Estimated
Tue 09:45:00 AM 66.6068 1.5163 274° West  Level Estimated
Tue 09:46:00 AM 66.6147 1.2315 274° West  Level Estimated
Tue 09:47:00 AM 66.6220 0.9466 274° West  Level Estimated
Tue 09:48:00 AM 66.6288 0.6614 274° West  Level Estimated
Tue 09:49:00 AM 66.6351 0.3762 273° West  Level Estimated
Tue 09:50:00 AM 66.6409 0.0908 273° West  Level Estimated
Tue 09:51:00 AM 66.6462 -0.1948 273° West  Level Estimated
Tue 09:52:00 AM 66.6509 -0.4804 273° West  Level Estimated
Tue 09:53:00 AM 66.6552 -0.7662 272° West  Level Estimated
Tue 09:54:00 AM 66.6589 -1.0520 272° West  Level Estimated
Tue 09:55:00 AM 66.6620 -1.3379 272° West  Level Estimated
Tue 09:56:00 AM 66.6647 -1.6239 271° West  Level Estimated
Tue 09:57:00 AM 66.6669 -1.9100 271° West  Level Estimated
Tue 09:58:00 AM 66.6685 -2.1960 271° West  Level Estimated
Tue 09:59:00 AM 66.6696 -2.4822 271° West  Level Estimated
Tue 10:00:00 AM 66.6702 -2.7683 270° West  Level Estimated
Tue 10:01:00 AM 66.6703 -3.0545 270° West  Level Estimated
Tue 10:02:00 AM 66.6698 -3.3406 270° West  Level Estimated
Tue 10:03:00 AM 66.6689 -3.6267 270° West  Level Estimated
Tue 10:04:00 AM 66.6674 -3.9128 269° West  Level Estimated
Tue 10:05:00 AM 66.6654 -4.1989 269° West  Level Estimated
Tue 10:06:00 AM 66.6628 -4.4849 269° West  Level Estimated
Tue 10:07:00 AM 66.6598 -4.7709 269° West  Level Estimated
Tue 10:08:00 AM 66.6562 -5.0567 268° West  Level Estimated
Tue 10:09:00 AM 66.6522 -5.3425 268° West  Level Estimated
Tue 10:10:00 AM 66.6476 -5.6282 268° West  Level Estimated
Tue 10:11:00 AM 66.6424 -5.9138 268° West  Level Estimated
Tue 10:12:00 AM 66.6368 -6.1992 267° West  Level Estimated
Tue 10:13:00 AM 66.6307 -6.4845 267° West  Level Estimated
Tue 10:14:00 AM 66.6240 -6.7697 267° West  Level Estimated
Tue 10:15:00 AM 66.6168 -7.0547 266° West  Level Estimated
Tue 10:16:00 AM 66.6091 -7.3395 266° West  Level Estimated
Tue 10:17:00 AM 66.6009 -7.6241 266° West  Level Estimated
Tue 10:18:00 AM 66.5921 -7.9086 266° West  Level Estimated
Tue 10:19:00 AM 66.5829 -8.1928 265° West  Level Estimated
Tue 10:20:00 AM 66.5731 -8.4768 265° West  Level Estimated
Tue 10:21:00 AM 66.5629 -8.7606 265° West  Level Estimated
Tue 10:22:00 AM 66.5521 -9.0442 265° West  Level Estimated
Tue 10:23:00 AM 66.5408 -9.3275 264° West  Level Estimated
Tue 10:24:00 AM 66.5290 -9.6105 264° West  Level Estimated
Tue 10:25:00 AM 66.5166 -9.8933 264° West  Level Estimated
Tue 10:26:00 AM 66.5038 -10.1758 264° West  Level Estimated
Tue 10:27:00 AM 66.4905 -10.4580 263° West  Level Estimated
Tue 10:28:00 AM 66.4766 -10.7399 263° West  Level Estimated
Tue 10:29:00 AM 66.4623 -11.0214 263° West  Level Estimated
Tue 10:30:00 AM 66.4474 -11.3027 263° West  Level Estimated
Tue 10:31:00 AM 66.4321 -11.5835 262° West  Level Estimated
Tue 10:32:00 AM 66.4162 -11.8641 262° West  Level Estimated
Tue 10:33:00 AM 66.3998 -12.1443 262° West  Level Estimated
Tue 10:34:00 AM 66.3829 -12.4241 262° West  Level Estimated
Tue 10:35:00 AM 66.3656 -12.7035 261° West  Level Estimated
Tue 10:36:00 AM 66.3477 -12.9825 261° West  Level Estimated
Tue 10:37:00 AM 66.3293 -13.2612 261° West  Level Estimated
Tue 10:38:00 AM 66.3105 -13.5394 261° West  Level Estimated
Tue 10:39:00 AM 66.2911 -13.8172 260° West  Level Estimated
Tue 10:40:00 AM 66.2712 -14.0945 260° West  Level Estimated
Tue 10:41:00 AM 66.2509 -14.3714 260° West  Level Estimated
Tue 10:42:00 AM 66.2300 -14.6479 260° West  Level Estimated
Tue 10:43:00 AM 66.2087 -14.9239 259° West  Level Estimated
Tue 10:44:00 AM 66.1869 -15.1994 259° West  Level Estimated
Tue 10:45:00 AM 66.1645 -15.4745 259° West  Level Estimated
Tue 10:46:00 AM 66.1417 -15.7490 259° West  Level Estimated
Tue 10:47:00 AM 66.1184 -16.0231 258° West  Level Estimated
Tue 10:48:00 AM 66.0947 -16.2966 258° West  Level Estimated
Tue 10:49:00 AM 66.0704 -16.5697 258° West  Level Estimated
Tue 10:50:00 AM 66.0456 -16.8422 258° West  Level Estimated
Tue 10:51:00 AM 66.0204 -17.1142 257° West  Level Estimated
Tue 10:52:00 AM 65.9947 -17.3856 257° West  Level Estimated
Tue 10:53:00 AM 65.9686 -17.6565 257° West  Level Estimated
Tue 10:54:00 AM 65.9419 -17.9268 257° West  Level Estimated
Tue 10:55:00 AM 65.9148 -18.1966 256° West  Level Estimated
Tue 10:56:00 AM 65.8872 -18.4657 256° West  Level Estimated
Tue 10:57:00 AM 65.8591 -18.7344 256° West  Level Estimated
Tue 10:58:00 AM 65.8306 -19.0023 256° West  Level Estimated
Tue 10:59:00 AM 65.8016 -19.2698 255° West  Level Estimated
Tue 11:00:00 AM 65.7721 -19.5366 255° West  Level Estimated
Tue 11:01:00 AM 65.7422 -19.8027 255° West  Level Estimated
Tue 11:02:00 AM 65.7118 -20.0683 255° West  Level Estimated
Tue 11:03:00 AM 65.6809 -20.3333 254° West  Level Estimated
Tue 11:04:00 AM 65.6496 -20.5975 254° West  Level Estimated
Tue 11:05:00 AM 65.6179 -20.8612 254° West  Level Estimated
Tue 11:06:00 AM 65.5856 -21.1242 254° West  Level Estimated
Tue 11:07:00 AM 65.5529 -21.3866 253° West  Level Estimated
Tue 11:08:00 AM 65.5198 -21.6483 253° West  Level Estimated
Tue 11:09:00 AM 65.4862 -21.9093 253° West  Level Estimated
Tue 11:10:00 AM 65.4522 -22.1696 253° West  Level Estimated
Tue 11:11:00 AM 65.4177 -22.4293 252° West  Level Estimated
Tue 11:12:00 AM 65.3828 -22.6883 252° West  Level Estimated
Tue 11:13:00 AM 65.3475 -22.9466 252° West  Level Estimated
Tue 11:14:00 AM 65.3117 -23.2042 252° West  Level Estimated
Tue 11:15:00 AM 65.2754 -23.4611 251° West  Level Estimated
Tue 11:16:00 AM 65.2387 -23.7172 251° West  Level Estimated
Tue 11:17:00 AM 65.2016 -23.9727 251° West  Level Estimated
Tue 11:18:00 AM 65.1641 -24.2274 251° West  Level Estimated
Tue 11:19:00 AM 65.1261 -24.4815 251° West  Level Estimated
Tue 11:20:00 AM 65.0877 -24.7348 250° West  Level Estimated
Tue 11:21:00 AM 65.0489 -24.9873 250° West  Level Estimated
Tue 11:22:00 AM 65.0096 -25.2391 250° West  Level Estimated
Tue 11:23:00 AM 64.9700 -25.4902 250° West  Level Estimated
Tue 11:24:00 AM 64.9299 -25.7405 249° West  Level Estimated
Tue 11:25:00 AM 64.8894 -25.9901 249° West  Level Estimated
Tue 11:26:00 AM 64.8484 -26.2389 249° West  Level Estimated
Tue 11:27:00 AM 64.8071 -26.4870 249° West  Level Estimated
Tue 11:28:00 AM 64.7653 -26.7343 248° West  Level Estimated
Tue 11:29:00 AM 64.7232 -26.9808 248° West  Level Estimated
Tue 11:30:00 AM 64.6806 -27.2266 248° West  Level Estimated
Tue 11:31:00 AM 64.6376 -27.4716 248° West  Level Estimated
Tue 11:32:00 AM 64.5942 -27.7158 248° West  Level Estimated
Tue 11:33:00 AM 64.5504 -27.9592 247° West  Level Estimated
Tue 11:34:00 AM 64.5062 -28.2019 247° West  Level Estimated
Tue 11:35:00 AM 64.4616 -28.4437 247° West  Level Estimated
Tue 11:36:00 AM 64.4167 -28.6848 247° West  Level Estimated
Tue 11:37:00 AM 64.3713 -28.9250 247° West  Level Estimated
Tue 11:38:00 AM 64.3255 -29.1645 246° West  Level Estimated
Tue 11:39:00 AM 64.2794 -29.4032 246° West  Level Estimated
Tue 11:40:00 AM 64.2328 -29.6411 246° West  Level Estimated
Tue 11:41:00 AM 64.1859 -29.8782 246° West  Level Estimated
Tue 11:42:00 AM 64.1386 -30.1144 245° Southwest  Level Estimated
Tue 11:43:00 AM 64.0909 -30.3499 245° Southwest  Level Estimated
Tue 11:44:00 AM 64.0428 -30.5845 245° Southwest  Level Estimated
Tue 11:45:00 AM 63.9944 -30.8184 245° Southwest  Level Estimated
Tue 11:46:00 AM 63.9455 -31.0514 245° Southwest  Level Estimated
Tue 11:47:00 AM 63.8964 -31.2836 244° Southwest  Level Estimated
Tue 11:48:00 AM 63.8468 -31.5150 244° Southwest  Level Estimated
Tue 11:49:00 AM 63.7968 -31.7456 244° Southwest  Level Estimated
Tue 11:50:00 AM 63.7465 -31.9754 244° Southwest  Level Estimated
Tue 11:51:00 AM 63.6959 -32.2043 244° Southwest  Level Estimated
Tue 11:52:00 AM 63.6448 -32.4325 243° Southwest  Level Estimated
Tue 11:53:00 AM 63.5934 -32.6598 243° Southwest  Level Estimated
Tue 11:54:00 AM 63.5417 -32.8863 243° Southwest  Level Estimated
Tue 11:55:00 AM 63.4896 -33.1119 243° Southwest  Level Estimated
Tue 11:56:00 AM 63.4371 -33.3368 243° Southwest  Level Estimated
Tue 11:57:00 AM 63.3843 -33.5608 242° Southwest  Level Estimated
Tue 11:58:00 AM 63.3312 -33.7840 242° Southwest  Level Estimated
Tue 11:59:00 AM 63.2777 -34.0063 242° Southwest  Level Estimated
Tue 12:00:00 PM 63.2238 -34.2279 242° Southwest  Level Estimated
Tue 12:01:00 PM 63.1696 -34.4486 242° Southwest  Level Estimated
Tue 12:02:00 PM 63.1151 -34.6684 241° Southwest  Level Estimated
Tue 12:03:00 PM 63.0602 -34.8875 241° Southwest  Level Estimated
Tue 12:04:00 PM 63.0050 -35.1057 241° Southwest  Level Estimated
Tue 12:05:00 PM 62.9495 -35.3231 241° Southwest  Level Estimated
Tue 12:06:00 PM 62.8936 -35.5397 241° Southwest  Level Estimated
Tue 12:07:00 PM 62.8374 -35.7555 240° Southwest  Level Estimated
Tue 12:08:00 PM 62.7808 -35.9704 240° Southwest  Level Estimated
Tue 12:09:00 PM 62.7240 -36.1845 240° Southwest  Level Estimated
Tue 12:10:00 PM 62.6668 -36.3977 240° Southwest  Level Estimated
Tue 12:11:00 PM 62.6093 -36.6102 240° Southwest  Level Estimated
Tue 12:12:00 PM 62.5514 -36.8218 239° Southwest  Level Estimated
Tue 12:13:00 PM 62.4933 -37.0326 239° Southwest  Level Estimated
Tue 12:14:00 PM 62.4348 -37.2426 239° Southwest  Level Estimated
Tue 12:15:00 PM 62.3760 -37.4518 239° Southwest  Level Estimated
Tue 12:16:00 PM 62.3170 -37.6601 239° Southwest  Level Estimated
Tue 12:17:00 PM 62.2576 -37.8676 238° Southwest  Level Estimated
Tue 12:18:00 PM 62.1978 -38.0743 238° Southwest  Level Estimated
Tue 12:19:00 PM 62.1378 -38.2802 238° Southwest  Level Estimated
Tue 12:20:00 PM 62.0775 -38.4852 238° Southwest  Level Estimated
Tue 12:21:00 PM 62.0169 -38.6895 238° Southwest  Level Estimated
Tue 12:22:00 PM 61.9560 -38.8929 238° Southwest  Level Estimated
Tue 12:23:00 PM 61.8947 -39.0956 237° Southwest  Level Estimated
Tue 12:24:00 PM 61.8332 -39.2974 237° Southwest  Level Estimated
Tue 12:25:00 PM 61.7714 -39.4984 237° Southwest  Level Estimated
Tue 12:26:00 PM 61.7093 -39.6986 237° Southwest  Level Estimated
Tue 12:27:00 PM 61.6469 -39.8979 237° Southwest  Level Estimated
Tue 12:28:00 PM 61.5842 -40.0965 237° Southwest  Level Estimated
Tue 12:29:00 PM 61.5212 -40.2943 236° Southwest  Level Estimated
Tue 12:30:00 PM 61.4580 -40.4913 236° Southwest  Level Estimated
Tue 12:31:00 PM 61.3944 -40.6875 236° Southwest  Level Estimated
Tue 12:32:00 PM 61.3306 -40.8829 236° Southwest  Level Estimated
Tue 12:32:53 PM 62.2510 -49.3160 236° Southwest 478 550 38,000  Level FlightAware ADS-B
Tue 12:33:00 PM 61.2665 -41.0774 236° Southwest  Level Estimated
Tue 12:33:33 PM 62.1960 -49.4670 232° Southwest 478 550 38,000  Level FlightAware ADS-B
Tue 12:34:19 PM 62.1340 -49.6370 232° Southwest 478 550 38,000  Level FlightAware ADS-B
Tue 12:35:22 PM 62.0590 -49.8340 231° Southwest 478 550 38,000  Level FlightAware ADS-B
Tue 12:36:23 PM 61.9670 -50.0970 233° Southwest 478 550 38,000  Level FlightAware ADS-B
Tue 12:37:07 PM 61.9130 -50.2710 237° Southwest 478 550 38,000  Level FlightAware ADS-B
Tue 12:37:51 PM 61.8570 -50.4410 235° Southwest 480 552 38,000  Level FlightAware ADS-B
Tue 12:38:30 PM 61.8090 -50.5880 235° Southwest 479 551 38,000  Level FlightAware ADS-B
Tue 12:39:25 PM 61.7460 -50.7800 235° Southwest 479 551 38,000  Level FlightAware ADS-B
Tue 12:40:01 PM 61.7070 -50.8970 235° Southwest 479 551 38,000  Level FlightAware ADS-B
Tue 12:40:37 PM 61.6680 -51.0140 235° Southwest 479 551 38,000  Level FlightAware ADS-B
Tue 12:41:25 PM 61.6160 -51.1700 235° Southwest 479 551 38,000  Level FlightAware ADS-B
Tue 12:42:37 PM 61.5390 -51.4040 235° Southwest 479 551 38,000  Level FlightAware ADS-B
Tue 12:43:14 PM 61.4990 -51.5230 235° Southwest 479 551 38,000  Level FlightAware ADS-B
Tue 12:44:00 PM 61.4490 -51.6720 235° Southwest 479 551 38,000  Level FlightAware ADS-B
Tue 12:44:37 PM 61.4090 -51.7910 235° Southwest 479 551 38,000  Level FlightAware ADS-B
Tue 12:45:16 PM 61.2840 -52.1330 233° Southwest 487 560 38,000  Level FlightAware ADS-B
Tue 12:46:06 PM 61.2270 -52.2920 233° Southwest 487 560 38,000  Level FlightAware ADS-B
Tue 12:46:42 PM 61.1850 -52.4060 233° Southwest 487 560 38,000  Level FlightAware ADS-B
Tue 12:47:31 PM 61.1290 -52.5620 233° Southwest 487 560 38,000  Level FlightAware ADS-B
Tue 12:48:09 PM 61.0850 -52.6820 233° Southwest 487 560 38,000  Level FlightAware ADS-B
Tue 12:48:47 PM 61.0410 -52.8020 233° Southwest 487 560 38,000  Level FlightAware ADS-B
Tue 12:49:46 PM 60.9730 -52.9880 233° Southwest 487 560 38,000  Level FlightAware ADS-B
Tue 12:50:23 PM 60.9300 -53.1050 233° Southwest 487 560 38,000  Level FlightAware ADS-B
Tue 12:51:11 PM 60.8750 -53.2560 233° Southwest 487 560 38,000  Level FlightAware ADS-B
Tue 12:51:59 PM 60.8200 -53.4060 233° Southwest 487 560 38,000  Level FlightAware ADS-B
Tue 12:52:35 PM 60.7780 -53.5190 233° Southwest 487 560 38,000  Level FlightAware ADS-B
Tue 12:53:36 PM 60.7080 -53.7100 233° Southwest 487 560 38,000  Level FlightAware ADS-B
Tue 12:54:10 PM 60.6690 -53.8160 233° Southwest 487 560 38,000  Level FlightAware ADS-B
Tue 12:54:59 PM 60.6120 -53.9690 233° Southwest 487 560 38,000  Level FlightAware ADS-B
Tue 12:57:00 PM 60.4378 -54.2697 220° Southwest  Level Estimated
Tue 12:58:00 PM 60.3512 -54.4176 220° Southwest  Level Estimated
Tue 12:59:00 PM 60.2645 -54.5648 220° Southwest  Level Estimated
Tue 01:00:00 PM 60.1775 -54.7111 220° Southwest  Level Estimated
Tue 01:01:00 PM 60.1042 -54.9080 233° Southwest  Level FlightAware Approximate
Tue 01:02:00 PM 60.0307 -55.1040 233° Southwest  Level FlightAware Approximate
Tue 01:02:02 PM 59.9167 -55.7000 232° Southwest 490 564 38,000  Level Gander Center
Tue 01:03:00 PM 59.9568 -55.2992 233° Southwest  Level FlightAware Approximate
Tue 01:03:02 PM 59.8333 -55.8833 228° Southwest 490 564 38,000  Level Gander Center
Tue 01:04:00 PM 59.8827 -55.4934 233° Southwest  Level FlightAware Approximate
Tue 01:04:02 PM 59.7167 -56.1000 223° Southwest 490 564 55,500  Level Gander Center
Tue 01:05:00 PM 59.8083 -55.6868 233° Southwest  Level FlightAware Approximate
Tue 01:05:02 PM 59.6667 -56.3000 244° Southwest 490 564 38,000  Level Gander Center
Tue 01:06:00 PM 59.7336 -55.8794 232° Southwest  Level FlightAware Approximate
Tue 01:06:02 PM 59.5667 -56.5167 228° Southwest 490 564 38,000  Level Gander Center
Tue 01:07:00 PM 59.6586 -56.0710 232° Southwest  Level FlightAware Approximate
Tue 01:07:02 PM 59.4833 -56.7333 233° Southwest 490 564 38,000  Level Gander Center
Tue 01:08:02 PM 59.4000 -56.9333 231° Southwest 490 564 38,000  Level Gander Center
Tue 01:09:02 PM 59.3000 -57.1333 226° Southwest 480 552 38,000  Level Gander Center
Tue 01:10:02 PM 59.2167 -57.3167 228° Southwest 490 564 38,000  Level Gander Center
Tue 01:11:02 PM 59.1333 -57.5167 231° Southwest 490 564 38,000  Level Gander Center
Tue 01:12:02 PM 59.0333 -57.7167 226° Southwest 490 564 38,000  Level Gander Center
Tue 01:13:02 PM 58.9667 -57.9167 237° Southwest 490 564 38,000  Level Gander Center
Tue 01:14:02 PM 58.8667 -58.1167 226° Southwest 490 564 38,000  Level Gander Center
Tue 01:15:02 PM 58.7667 -58.3333 228° Southwest 490 564 38,000  Level Gander Center
Tue 01:16:02 PM 58.6833 -58.5333 231° Southwest 490 564 38,000  Level Gander Center
Tue 01:17:02 PM 58.6000 -58.7167 229° Southwest 490 564 38,000  Level Gander Center
Tue 01:18:02 PM 58.5000 -58.8833 221° Southwest 490 564 38,000  Level Gander Center
Tue 01:19:02 PM 58.4167 -59.0833 232° Southwest 490 564 38,000  Level Gander Center
Tue 01:20:02 PM 58.3167 -59.2833 226° Southwest 490 564 38,000  Level Gander Center
Tue 01:21:02 PM 58.2333 -59.4833 232° Southwest 490 564 38,000  Level Gander Center
Tue 01:22:02 PM 58.1500 -59.6667 229° Southwest 480 552 38,000  Level Gander Center
Tue 01:23:02 PM 58.0500 -59.8667 227° Southwest 480 552 38,000  Level Gander Center
Tue 01:24:02 PM 57.9333 -60.0000 211° Southwest 490 564 38,000  Level Gander Center
Tue 01:25:02 PM 57.8333 -60.1500 219° Southwest 490 564 38,000  Level Gander Center
Tue 01:26:02 PM 57.7167 -60.2833 211° Southwest 490 564 38,000  Level Gander Center
Tue 01:27:02 PM 57.6000 -60.4500 217° Southwest 490 564 38,000  Level Gander Center
Tue 01:28:02 PM 57.4833 -60.5667 208° Southwest 490 564 38,000  Level Gander Center
Tue 01:29:02 PM 57.3667 -60.7000 212° Southwest 490 564 38,000  Level Gander Center
Tue 01:30:02 PM 57.2500 -60.8500 215° Southwest 490 564 38,000  Level Gander Center
Tue 01:31:02 PM 57.1333 -60.9667 208° Southwest 490 564 38,000  Level Gander Center
Tue 01:32:02 PM 57.0167 -61.1333 218° Southwest 490 564 38,000  Level Gander Center
Tue 01:33:02 PM 56.9000 -61.2500 209° Southwest 500 575 38,000  Level Gander Center
Tue 01:34:02 PM 56.7833 -61.4000 215° Southwest 490 564 38,000  Level Gander Center
Tue 01:35:02 PM 56.6667 -61.5333 212° Southwest 490 564 38,000  Level Gander Center
Tue 01:36:02 PM 56.5500 -61.6833 215° Southwest 490 564 38,000  Level Gander Center
Tue 01:37:02 PM 56.4333 -61.7667 202° Southwest 490 564 38,000  Level Gander Center
Tue 01:38:02 PM 56.3000 -61.8833 206° Southwest 490 564 38,000  Level Gander Center
Tue 01:39:02 PM 56.1833 -62.0000 209° Southwest 490 564 38,000  Level Gander Center
Tue 01:40:02 PM 56.0667 -62.1167 209° Southwest 490 564 38,000  Level Gander Center
Tue 01:41:02 PM 55.9500 -62.2333 209° Southwest 490 564 38,000  Level Gander Center
Tue 01:42:02 PM 55.8167 -62.3500 206° Southwest 490 564 38,000  Level Gander Center
Tue 01:43:02 PM 55.7000 -62.4333 202° Southwest 500 575 38,000  Level Gander Center
Tue 01:44:02 PM 55.5833 -62.5500 209° Southwest 490 564 38,000  Level Gander Center
Tue 01:45:02 PM 55.4500 -62.6667 206° Southwest 490 564 38,000  Level Gander Center
Tue 01:46:02 PM 55.3333 -62.7833 210° Southwest 490 564 38,000  Level Gander Center
Tue 01:47:02 PM 55.2000 -62.9000 207° Southwest 500 575 38,000  Level Gander Center
Tue 01:48:02 PM 55.0833 -62.9833 202° Southwest 500 575 38,000  Level Gander Center
Tue 01:49:02 PM 54.9500 -63.0833 203° Southwest 490 564 38,000  Level Gander Center
Tue 01:50:02 PM 54.8333 -63.2000 210° Southwest 500 575 38,000  Level Gander Center
Tue 01:51:02 PM 54.7000 -63.3000 203° Southwest 490 564 38,000  Level Gander Center
Tue 01:52:02 PM 54.5833 -63.4167 210° Southwest 500 575 38,000  Level Gander Center
Tue 01:53:02 PM 54.4667 -63.5000 203° Southwest 500 575 38,000  Level Gander Center
Tue 01:54:02 PM 54.3500 -63.6000 207° Southwest 500 575 38,000  Level Gander Center
Tue 01:55:02 PM 54.2167 -63.7167 207° Southwest 500 575 38,000  Level Gander Center
Tue 01:56:02 PM 54.0833 -63.8167 204° Southwest 490 564 38,000  Level Gander Center
Tue 01:57:02 PM 53.9667 -63.9333 210° Southwest 490 564 38,000  Level Gander Center
Tue 01:58:02 PM 53.8333 -64.0333 204° Southwest 500 575 38,000  Level Gander Center
Tue 01:59:02 PM 53.7167 -64.1333 207° Southwest 490 564 38,000  Level Gander Center
Tue 02:00:02 PM 53.6000 -64.2167 203° Southwest 500 575 38,000  Level Gander Center
Tue 02:01:02 PM 53.4667 -64.3500 211° Southwest 500 575 38,000  Level Gander Center
Tue 02:02:02 PM 53.3500 -64.4500 207° Southwest 490 564 38,000  Level Gander Center
Tue 02:03:02 PM 53.2333 -64.5500 207° Southwest 490 564 38,000  Level Gander Center
Tue 02:04:02 PM 53.1167 -64.6500 207° Southwest 490 564 38,000  Level Gander Center
Tue 02:05:02 PM 53.0000 -64.7500 207° Southwest 490 564 38,000  Level Gander Center
Tue 02:06:02 PM 52.8667 -64.8500 204° Southwest 490 564 38,000  Level Gander Center
Tue 02:07:02 PM 52.7500 -64.9833 215° Southwest 490 564 38,000  Level Gander Center
Tue 02:08:02 PM 52.6333 -65.0833 207° Southwest 480 552 38,000  Level Gander Center
Tue 02:09:02 PM 52.5167 -65.1833 208° Southwest 480 552 38,000  Level Gander Center
Tue 02:10:02 PM 52.4000 -65.2833 208° Southwest 480 552 38,000  Level Gander Center
Tue 02:11:02 PM 52.2667 -65.3833 205° Southwest 480 552 38,000  Level Gander Center
Tue 02:12:02 PM 52.1500 -65.4833 208° Southwest 490 564 38,000  Level Gander Center
Tue 02:13:02 PM 52.0333 -65.5833 208° Southwest 490 564 38,000  Level Gander Center
Tue 02:14:02 PM 51.9167 -65.6833 208° Southwest 490 564 38,000  Level Gander Center
Tue 02:14:40 PM 51.8333 -65.7167 194° South 500 575 38,000  Level Moncton Center
Tue 02:15:40 PM 51.7000 -65.7667 193° South 510 587 38,000  Level Moncton Center
Tue 02:16:40 PM 51.5333 -65.8167 191° South 510 587 38,000  Level Moncton Center
Tue 02:17:40 PM 51.4000 -65.8667 193° South 510 587 38,000  Level Moncton Center
Tue 02:18:40 PM 51.2500 -65.9167 192° South 510 587 38,000  Level Moncton Center
Tue 02:19:40 PM 51.1167 -65.9667 193° South 510 587 38,000  Level Moncton Center
Tue 02:20:40 PM 51.0000 -66.0167 195° South 510 587 38,000  Level Moncton Center
Tue 02:21:40 PM 50.8500 -66.0667 192° South 510 587 38,000  Level Moncton Center
Tue 02:22:40 PM 50.7167 -66.1167 193° South 500 575 38,000  Level Moncton Center
Tue 02:23:40 PM 50.5833 -66.1667 193° South 500 575 38,000  Level Moncton Center
Tue 02:24:40 PM 50.4500 -66.2167 193° South 500 575 38,000  Level Moncton Center
Tue 02:25:40 PM 50.3000 -66.2500 188° South 500 575 38,000  Level Moncton Center
Tue 02:26:40 PM 50.1667 -66.3000 194° South 500 575 38,000  Level Moncton Center
Tue 02:27:40 PM 50.0500 -66.3833 205° Southwest 490 564 38,000  Level Moncton Center
Tue 02:28:40 PM 49.9167 -66.4500 198° South 490 564 38,000  Level Moncton Center
Tue 02:29:40 PM 49.7833 -66.5167 198° South 480 552 38,000  Level Moncton Center
Tue 02:30:40 PM 49.6500 -66.6000 202° Southwest 480 552 38,000  Level Moncton Center
Tue 02:31:40 PM 49.5333 -66.6500 196° South 480 552 38,000  Level Moncton Center
Tue 02:32:40 PM 49.4000 -66.7167 198° South 470 541 38,000  Level Moncton Center
Tue 02:33:40 PM 49.2833 -66.7833 200° South 470 541 38,000  Level Moncton Center
Tue 02:34:40 PM 49.1667 -66.8500 200° South 470 541 38,000  Level Moncton Center
Tue 02:35:40 PM 49.0500 -66.9333 205° Southwest 470 541 38,000  Level Moncton Center
Tue 02:36:40 PM 48.9333 -67.0000 201° Southwest 470 541 38,000  Level Moncton Center
Tue 02:37:40 PM 48.7833 -67.0667 196° South 470 541 38,000  Level Moncton Center
Tue 02:44:07 PM 48.0410 -67.4580 196° South 468 539 38,000  Level FlightAware ADS-B
Tue 02:44:47 PM 47.9610 -67.4990 199° South 469 540 38,000  Level FlightAware ADS-B
Tue 02:45:31 PM 47.9580 -67.5000 193° South 472 543 38,000  Level FlightAware ADS-B
Tue 02:46:11 PM 47.7650 -67.5990 199° South 473 544 38,000  Level FlightAware ADS-B
Tue 02:46:51 PM 47.6960 -67.6350 199° South 473 544 38,000  Level FlightAware ADS-B
Tue 02:47:41 PM 47.5880 -67.6890 199° South 474 545 38,000  Level FlightAware ADS-B
Tue 02:48:41 PM 47.4650 -67.7510 199° South 474 545 38,000  Level FlightAware ADS-B
Tue 02:49:24 PM 47.3690 -67.8000 199° South 474 545 38,000  Level FlightAware ADS-B
Tue 02:50:04 PM 47.2840 -67.8420 199° South 475 547 38,000  Level FlightAware ADS-B
Tue 02:50:44 PM 47.2010 -67.8840 199° South 477 549 38,000  Level FlightAware ADS-B
Tue 02:51:24 PM 47.1180 -67.9250 199° South 477 549 38,000  Level FlightAware ADS-B
Tue 02:52:04 PM 47.0340 -67.9670 199° South 476 548 38,000  Level FlightAware ADS-B
Tue 02:52:39 PM 46.9610 -68.0030 199° South 477 549 38,000  Level FlightAware ADS-B
Tue 02:53:24 PM 46.8680 -68.0490 199° South 477 549 38,000  Level FlightAware ADS-B
Tue 02:54:03 PM 46.7850 -68.0890 198° South 475 547 38,000  Level FlightAware ADS-B
Tue 02:54:28 PM 46.7340 -68.1140 199° South 478 550 38,000  Level FlightAware ADS-B
Tue 02:55:13 PM 46.6470 -68.1490 195° South 481 554 38,000  Level FlightAware ADS-B
Tue 02:55:58 PM 46.5570 -68.1840 195° South 480 552 38,000  Level FlightAware ADS-B
Tue 02:57:05 PM 46.4000 -68.2500 196° South 467 537 38,000  Level FlightAware ADS-B
Tue 02:57:38 PM 46.3360 -68.2760 196° South 475 547 38,000  Level FlightAware ADS-B
Tue 02:58:40 PM 46.2010 -68.3320 196° South 470 541 38,000  Level FlightAware ADS-B
Tue 02:59:20 PM 46.1110 -68.3690 196° South 471 542 38,000  Level FlightAware ADS-B
Tue 03:00:05 PM 46.0180 -68.4060 195° South 472 543 38,000  Level FlightAware ADS-B
Tue 03:00:45 PM 45.9310 -68.4420 196° South 471 542 38,000  Level FlightAware ADS-B
Tue 03:01:27 PM 45.8460 -68.4760 196° South 470 541 38,000  Level FlightAware ADS-B
Tue 03:02:07 PM 45.7610 -68.5100 196° South 471 542 38,000  Level FlightAware ADS-B
Tue 03:02:51 PM 45.6660 -68.5490 196° South 480 552 38,000  Level FlightAware ADS-B
Tue 03:03:32 PM 45.5780 -68.5840 196° South 471 542 38,000  Level FlightAware ADS-B
Tue 03:04:12 PM 45.4910 -68.6180 195° South 467 537 38,000  Level FlightAware ADS-B
Tue 03:04:57 PM 45.3980 -68.6550 196° South 466 536 38,000  Level FlightAware ADS-B
Tue 03:05:38 PM 45.3110 -68.6900 196° South 465 535 38,000  Level FlightAware ADS-B
Tue 03:06:17 PM 45.2280 -68.7230 196° South 465 535 38,000  Level FlightAware ADS-B
Tue 03:07:04 PM 45.1270 -68.7630 196° South 472 543 38,000  Level FlightAware ADS-B
Tue 03:07:45 PM 45.0450 -68.7950 195° South 470 541 38,000  Level FlightAware ADS-B
Tue 03:08:29 PM 44.9510 -68.8310 195° South 470 541 38,000  Level FlightAware ADS-B
Tue 03:09:09 PM 44.8680 -68.8650 196° South 468 539 38,000  Level FlightAware ADS-B
Tue 03:09:52 PM 44.7810 -68.9140 202° Southwest 461 531 38,000  Level FlightAware ADS-B
Tue 03:10:34 PM 44.7010 -68.9690 206° Southwest 462 532 38,000  Level FlightAware ADS-B
Tue 03:11:40 PM 44.5850 -69.0490 206° Southwest 464 534 38,000  Level FlightAware ADS-B
Tue 03:12:26 PM 44.4850 -69.1170 206° Southwest 468 539 38,000  Level FlightAware ADS-B
Tue 03:13:06 PM 44.4070 -69.1690 205° Southwest 469 540 38,000  Level FlightAware ADS-B
Tue 03:13:38 PM 44.3460 -69.2110 206° Southwest 469 540 38,000  Level FlightAware ADS-B
Tue 03:14:25 PM 44.2520 -69.2740 206° Southwest 469 540 38,000  Level FlightAware ADS-B
Tue 03:15:05 PM 44.1750 -69.3260 206° Southwest 468 539 38,000  Level FlightAware ADS-B
Tue 03:15:47 PM 44.0930 -69.3800 205° Southwest 468 539 38,000  Level FlightAware ADS-B
Tue 03:16:31 PM 44.0090 -69.4360 206° Southwest 468 539 38,000  Level FlightAware ADS-B
Tue 03:17:15 PM 43.9200 -69.4950 206° Southwest 472 543 38,000  Level FlightAware ADS-B
Tue 03:17:55 PM 43.8410 -69.5470 205° Southwest 473 544 38,000  Level FlightAware ADS-B
Tue 03:18:31 PM 43.7720 -69.5930 206° Southwest 471 542 38,000  Level FlightAware ADS-B
Tue 03:19:09 PM 43.6960 -69.6420 205° Southwest 469 540 38,000  Level FlightAware ADS-B
Tue 03:19:49 PM 43.6170 -69.6940 205° Southwest 468 539 38,000  Level FlightAware ADS-B
Tue 03:20:29 PM 43.5410 -69.7440 205° Southwest 468 539 38,000  Level FlightAware ADS-B
Tue 03:21:09 PM 43.4590 -69.7960 205° Southwest 470 541 38,000  Level FlightAware ADS-B
Tue 03:21:51 PM 43.3730 -69.8310 196° South 476 548 38,000  Level FlightAware ADS-B
Tue 03:22:33 PM 43.2840 -69.8520 190° South 477 549 38,000  Level FlightAware ADS-B
Tue 03:23:19 PM 43.1910 -69.8670 187° South 473 544 38,000  Level FlightAware ADS-B
Tue 03:23:59 PM 43.0950 -69.8830 187° South 472 543 38,000  Level FlightAware ADS-B
Tue 03:24:34 PM 43.0200 -69.8940 186° South 466 536 38,000  Level FlightAware ADS-B
Tue 03:25:21 PM 42.9150 -69.9090 186° South 475 547 38,000  Level FlightAware ADS-B
Tue 03:26:07 PM 42.8140 -69.9240 186° South 474 545 38,000  Level FlightAware ADS-B
Tue 03:26:47 PM 42.7280 -69.9360 186° South 473 544 38,000  Level FlightAware ADS-B
Tue 03:27:31 PM 42.6320 -69.9500 186° South 475 547 38,000  Level FlightAware ADS-B
Tue 03:28:05 PM 42.5580 -69.9610 186° South 475 547 38,000  Level FlightAware ADS-B
Tue 03:28:50 PM 42.4650 -69.9740 186° South 466 536 38,000  Level FlightAware ADS-B
Tue 03:29:35 PM 42.3670 -69.9880 186° South 471 542 38,000  Level FlightAware ADS-B
Tue 03:30:09 PM 42.2890 -69.9990 186° South 469 540 38,000  Level FlightAware ADS-B
Tue 03:31:00 PM 42.1870 -70.0170 187° South 458 527 38,000  Level FlightAware ADS-B
Tue 03:31:40 PM 42.1000 -70.0510 196° South 464 534 38,000  Level FlightAware ADS-B
Tue 03:32:20 PM 42.0240 -70.0970 204° Southwest 455 524 38,000  Level FlightAware ADS-B
Tue 03:33:18 PM 41.9300 -70.1810 214° Southwest 454 522 38,000  Level FlightAware ADS-B
Tue 03:34:00 PM 41.8550 -70.2770 224° Southwest 458 527 38,000  Level FlightAware ADS-B
Tue 03:34:41 PM 41.7990 -70.3580 227° Southwest 453 521 38,000  Level FlightAware ADS-B
Tue 03:35:19 PM 41.7430 -70.4400 228° Southwest 459 528 38,000  Level FlightAware ADS-B
Tue 03:36:05 PM 41.6800 -70.5310 227° Southwest 457 526 38,000  Level FlightAware ADS-B
Tue 03:36:45 PM 41.6310 -70.6020 227° Southwest 457 526 38,000  Level FlightAware ADS-B
Tue 03:37:28 PM 41.5580 -70.7070 227° Southwest 458 527 38,000  Level FlightAware ADS-B
Tue 03:38:10 PM 41.5010 -70.7890 227° Southwest 456 525 38,000  Level FlightAware ADS-B
Tue 03:38:49 PM 41.4490 -70.8650 228° Southwest 454 522 38,000  Level FlightAware ADS-B
Tue 03:39:30 PM 41.3830 -70.9580 227° Southwest 453 521 38,000  Level FlightAware ADS-B
Tue 03:40:09 PM 41.3270 -71.0380 227° Southwest 455 524 38,000  Level FlightAware ADS-B
Tue 03:40:54 PM 41.2700 -71.1350 232° Southwest 448 516 38,000  Level FlightAware ADS-B
Tue 03:41:40 PM 41.2240 -71.2480 242° Southwest 451 519 38,000  Level FlightAware ADS-B
Tue 03:42:20 PM 41.1970 -71.3440 250° West 446 513 38,000  Level FlightAware ADS-B
Tue 03:43:00 PM 41.1660 -71.4550 250° West 445 512 38,000  Level FlightAware ADS-B
Tue 03:43:35 PM 41.1410 -71.5440 250° West 444 511 38,000  Level FlightAware ADS-B
Tue 03:44:05 PM 41.1175 -71.6268 249° West 447 514 38,000  Level FlightAware ADS-B
Tue 03:44:36 PM 41.0956 -71.7040 249° West 449 517 38,000  Level FlightAware ADS-B
Tue 03:45:08 PM 41.0717 -71.7877 249° West 449 517 38,000  Level FlightAware ADS-B
Tue 03:45:51 PM 41.0401 -71.8985 249° West 450 518 38,000  Level FlightAware ADS-B
Tue 03:46:16 PM 41.0204 -71.9605 247° West 450 518 38,000  Level FlightAware ADS-B
Tue 03:46:34 PM 40.9983 -72.0001 234° Southwest 451 519 38,000  Level FlightAware ADS-B
Tue 03:47:11 PM 40.9426 -72.0693 223° Southwest 451 519 38,000  Level FlightAware ADS-B
Tue 03:47:41 PM 40.8960 -72.1274 223° Southwest 451 519 38,000  Level FlightAware ADS-B
Tue 03:48:12 PM 40.8489 -72.1855 223° Southwest 451 519 38,000  Level FlightAware ADS-B
Tue 03:48:43 PM 40.8016 -72.2440 223° Southwest 451 519 38,000  Level FlightAware ADS-B
Tue 03:49:22 PM 40.7428 -72.3170 223° Southwest 451 519 38,000  Level FlightAware ADS-B
Tue 03:50:24 PM 40.6480 -72.4341 223° Southwest 451 519 38,000  Level FlightAware ADS-B
Tue 03:50:54 PM 40.6060 -72.4860 223° Southwest 452 520 38,000  Level FlightAware ADS-B
Tue 03:51:37 PM 40.5380 -72.5700 223° Southwest 453 521 38,000  Level FlightAware ADS-B
Tue 03:52:04 PM 40.4961 -72.6208 223° Southwest 455 524 38,000  Level FlightAware ADS-B
Tue 03:52:45 PM 40.4333 -72.6977 223° Southwest 457 526 38,000  Level FlightAware ADS-B
Tue 03:53:16 PM 40.3849 -72.7568 223° Southwest 457 526 38,000  Level FlightAware ADS-B
Tue 03:53:57 PM 40.3212 -72.8342 223° Southwest 457 526 38,000  Level FlightAware ADS-B
Tue 03:54:27 PM 40.2790 -72.8860 223° Southwest 457 526 38,000  Level FlightAware ADS-B
Tue 03:54:36 PM 40.2608 -72.9076 222° Southwest 457 526 38,000  Level FlightAware ADS-B
Tue 03:55:13 PM 40.2044 -72.9760 223° Southwest 457 526 38,000  Level FlightAware ADS-B
Tue 03:55:43 PM 40.1571 -73.0331 223° Southwest 457 526 38,000  Level FlightAware ADS-B
Tue 03:56:26 PM 40.0920 -73.1120 223° Southwest 456 525 38,000  Level FlightAware ADS-B
Tue 03:57:06 PM 40.0287 -73.1877 222° Southwest 457 526 38,000  Level FlightAware ADS-B
Tue 03:57:39 PM 39.9780 -73.2485 223° Southwest 458 527 38,000  Level FlightAware ADS-B
Tue 03:58:11 PM 39.9272 -73.3093 223° Southwest 458 527 38,000  Level FlightAware ADS-B
Tue 03:58:43 PM 39.8774 -73.3688 223° Southwest 458 527 38,000  Level FlightAware ADS-B
Tue 03:59:15 PM 39.8276 -73.4283 223° Southwest 457 526 38,000  Level FlightAware ADS-B
Tue 03:59:49 PM 39.7757 -73.4899 222° Southwest 457 526 38,000  Level FlightAware ADS-B
Tue 04:00:23 PM 39.7225 -73.5531 222° Southwest 457 526 38,000  Level FlightAware ADS-B
Tue 04:00:54 PM 39.6739 -73.6107 222° Southwest 457 526 38,000  Level FlightAware ADS-B
Tue 04:01:25 PM 39.6256 -73.6678 222° Southwest 458 527 38,000  Level FlightAware ADS-B
Tue 04:01:56 PM 39.5768 -73.7253 222° Southwest 459 528 38,000  Level FlightAware ADS-B
Tue 04:02:27 PM 39.5276 -73.7832 222° Southwest 459 528 38,000  Level FlightAware ADS-B
Tue 04:02:58 PM 39.4819 -73.8369 222° Southwest 459 528 38,000  Level FlightAware ADS-B
Tue 04:03:33 PM 39.4246 -73.9059 223° Southwest 460 529 38,000  Level FlightAware ADS-B
Tue 04:03:50 PM 39.4015 -73.9412 230° Southwest 461 531 38,000  Level FlightAware ADS-B
Tue 04:04:20 PM 39.3624 -74.0065 232° Southwest 460 529 38,000  Level FlightAware ADS-B
Tue 04:04:50 PM 39.3237 -74.0721 233° Southwest 460 529 38,000  Level FlightAware ADS-B
Tue 04:05:21 PM 39.2840 -74.1391 233° Southwest 461 531 38,000  Level FlightAware ADS-B
Tue 04:05:53 PM 39.2430 -74.2086 233° Southwest 462 532 38,000  Level FlightAware ADS-B
Tue 04:06:09 PM 39.2206 -74.2424 229° Southwest 462 532 38,000  Level FlightAware ADS-B
Tue 04:06:18 PM 39.2076 -74.2589 225° Southwest 462 532 38,000  Level FlightAware ADS-B
Tue 04:06:28 PM 39.1914 -74.2768 221° Southwest 461 531 38,000  Level FlightAware ADS-B
Tue 04:07:00 PM 39.1389 -74.3330 220° Southwest 462 532 38,000  Level FlightAware ADS-B
Tue 04:07:36 PM 39.0792 -74.3968 220° Southwest 463 533 38,000  Level FlightAware ADS-B
Tue 04:08:09 PM 39.0255 -74.4540 220° Southwest 462 532 38,000  Level FlightAware ADS-B
Tue 04:08:40 PM 38.9742 -74.5084 220° Southwest 462 532 38,000  Level FlightAware ADS-B
Tue 04:09:21 PM 38.9059 -74.5807 219° Southwest 463 533 38,000  Level FlightAware ADS-B
Tue 04:09:52 PM 38.8547 -74.6348 219° Southwest 465 535 38,000  Level FlightAware ADS-B
Tue 04:10:23 PM 38.8028 -74.6896 219° Southwest 463 533 38,000  Level FlightAware ADS-B
Tue 04:11:05 PM 38.7342 -74.7617 219° Southwest 462 532 38,000  Level FlightAware ADS-B
Tue 04:11:36 PM 38.6823 -74.8160 219° Southwest 460 529 38,000  Level FlightAware ADS-B
Tue 04:12:08 PM 38.6300 -74.8706 219° Southwest 459 528 38,000  Level FlightAware ADS-B
Tue 04:12:47 PM 38.5656 -74.9379 219° Southwest 459 528 38,000  Level FlightAware ADS-B
Tue 04:13:18 PM 38.5150 -74.9906 219° Southwest 458 527 38,000  Level FlightAware ADS-B
Tue 04:14:15 PM 38.4300 -75.0790 219° Southwest 457 526 38,000  Level FlightAware ADS-B
Tue 04:15:00 PM 38.3490 -75.1630 219° Southwest 458 527 38,000  Level FlightAware ADS-B
Tue 04:15:30 PM 38.2990 -75.2147 219° Southwest 458 527 38,000  Level FlightAware ADS-B
Tue 04:16:01 PM 38.2492 -75.2661 219° Southwest 459 528 38,000  Level FlightAware ADS-B
Tue 04:16:53 PM 38.1650 -75.3530 219° Southwest 459 528 38,000  Level FlightAware ADS-B
Tue 04:17:33 PM 38.0969 -75.4226 219° Southwest 461 531 38,000  Level FlightAware ADS-B
Tue 04:17:46 PM 38.0745 -75.4453 219° Southwest 461 531 38,000  Level FlightAware ADS-B
Tue 04:18:13 PM 38.0269 -75.4853 214° Southwest 459 528 38,000  Level FlightAware ADS-B
Tue 04:18:40 PM 37.9776 -75.5201 209° Southwest 459 528 38,000  Level FlightAware ADS-B
Tue 04:19:38 PM 37.8770 -75.5880 208° Southwest 459 528 38,000  Level FlightAware ADS-B
Tue 04:20:28 PM 37.7780 -75.6560 209° Southwest 461 531 38,000  Level FlightAware ADS-B
Tue 04:20:47 PM 37.7386 -75.6825 208° Southwest 463 533 38,000  Level FlightAware ADS-B
Tue 04:21:19 PM 37.6788 -75.7232 208° Southwest 464 534 38,000  Level FlightAware ADS-B
Tue 04:21:49 PM 37.6220 -75.7618 208° Southwest 464 534 38,000  Level FlightAware ADS-B
Tue 04:22:21 PM 37.5623 -75.8022 208° Southwest 464 534 38,000  Level FlightAware ADS-B
Tue 04:23:02 PM 37.4920 -75.8500 208° Southwest 458 527 38,000  Level FlightAware ADS-B
Tue 04:23:42 PM 37.4190 -75.8990 208° Southwest 458 527 38,000  Level FlightAware ADS-B
Tue 04:24:38 PM 37.3060 -75.9750 208° Southwest 457 526 38,000  Level FlightAware ADS-B
Tue 04:25:36 PM 37.1970 -76.0600 212° Southwest 472 543 38,000  Level FlightAware ADS-B
Tue 04:26:24 PM 37.1230 -76.1490 224° Southwest 473 544 38,000  Level FlightAware ADS-B
Tue 04:26:39 PM 37.0984 -76.1794 225° Southwest 475 547 38,000  Level FlightAware ADS-B
Tue 04:27:15 PM 37.0411 -76.2487 224° Southwest 476 548 38,000  Level FlightAware ADS-B
Tue 04:27:53 PM 36.9802 -76.3227 224° Southwest 476 548 38,000  Level FlightAware ADS-B
Tue 04:28:31 PM 36.9206 -76.3955 224° Southwest 474 545 38,000  Level FlightAware ADS-B
Tue 04:29:14 PM 36.8550 -76.4750 224° Southwest 475 547 38,000  Level FlightAware ADS-B
Tue 04:29:33 PM 36.8238 -76.5133 225° Southwest 474 545 38,000  Level FlightAware ADS-B
Tue 04:30:03 PM 36.7758 -76.5717 224° Southwest 474 545 38,000  Level FlightAware ADS-B
Tue 04:31:14 PM 36.6790 -76.7180 231° Southwest 480 552 38,000  Level FlightAware ADS-B
Tue 04:31:53 PM 36.6230 -76.7950 228° Southwest 474 545 38,000  Level FlightAware ADS-B
Tue 04:32:31 PM 36.5660 -76.8470 216° Southwest 474 545 38,000  Level FlightAware ADS-B
Tue 04:32:54 PM 36.5120 -76.8840 209° Southwest 38,000  Level FlightAware ADS-B
Tue 04:33:09 PM 36.4850 -76.9040 211° Southwest 467 537 38,000  Level FlightAware ADS-B
Tue 04:34:04 PM 36.3780 -76.9840 211° Southwest 468 539 38,000  Level FlightAware ADS-B
Tue 04:34:54 PM 36.2830 -77.0540 211° Southwest 469 540 38,000  Level FlightAware ADS-B
Tue 04:35:38 PM 36.2040 -77.1130 211° Southwest 470 541 38,000  Level FlightAware ADS-B
Tue 04:36:35 PM 36.1010 -77.1900 211° Southwest 469 540 38,000  Level FlightAware ADS-B
Tue 04:37:11 PM 36.0440 -77.2320 211° Southwest 469 540 38,000  Level FlightAware ADS-B
Tue 04:37:57 PM 35.9360 -77.3030 208° Southwest 462 532 38,000  Level FlightAware ADS-B
Tue 04:38:42 PM 35.8440 -77.3350 196° South 468 539 38,000  Level FlightAware ADS-B
Tue 04:39:19 PM 35.7650 -77.3630 196° South 469 540 38,000  Level FlightAware ADS-B
Tue 04:39:58 PM 35.6820 -77.3940 197° South 470 541 38,000  Level FlightAware ADS-B
Tue 04:40:40 PM 35.6100 -77.4200 196° South 470 541 38,000  Level FlightAware ADS-B
Tue 04:41:17 PM 35.5440 -77.4430 196° South 470 541 38,000  Level FlightAware ADS-B
Tue 04:42:05 PM 35.4590 -77.4730 196° South 470 541 38,000  Level FlightAware ADS-B
Tue 04:42:41 PM 35.3950 -77.4950 196° South 470 541 38,000  Level FlightAware ADS-B
Tue 04:43:29 PM 35.3100 -77.5250 196° South 470 541 38,000  Level FlightAware ADS-B
Tue 04:44:05 PM 35.2460 -77.5480 196° South 470 541 38,000  Level FlightAware ADS-B
Tue 04:44:41 PM 35.1820 -77.5700 196° South 470 541 38,000  Level FlightAware ADS-B
Tue 04:45:29 PM 35.0960 -77.6000 196° South 470 541 38,000  Level FlightAware ADS-B
Tue 04:46:05 PM 35.0320 -77.6220 196° South 470 541 38,000  Level FlightAware ADS-B
Tue 04:46:52 PM 34.9490 -77.6520 197° South 470 541 38,000  Level FlightAware ADS-B
Tue 04:47:28 PM 34.8850 -77.6740 196° South 470 541 38,000  Level FlightAware ADS-B
Tue 04:48:16 PM 34.8000 -77.7040 196° South 470 541 38,000  Level FlightAware ADS-B
Tue 04:48:52 PM 34.7360 -77.7260 196° South 470 541 38,000  Level FlightAware ADS-B
Tue 04:49:40 PM 34.6500 -77.7560 196° South 470 541 38,000  Level FlightAware ADS-B
Tue 04:50:29 PM 34.3714 -77.8717 196° South 475 547 38,000  Level Washington Center
Tue 04:51:30 PM 34.2392 -77.9106 194° South 482 555 38,000  Level Washington Center
Tue 04:53:37 PM 33.9600 -77.9853 193° South 495 570 38,000  Level Jacksonville Center
Tue 04:54:37 PM 33.8281 -78.0253 194° South 488 562 38,000  Level Jacksonville Center
Tue 04:55:37 PM 33.7022 -78.0622 194° South 471 542 38,000  Level Jacksonville Center
Tue 04:56:37 PM 33.5867 -78.0958 194° South 469 540 38,000  Level Jacksonville Center
Tue 04:57:37 PM 33.4586 -78.1328 194° South 469 540 38,000  Level Jacksonville Center
Tue 04:58:37 PM 33.3328 -78.1667 193° South 469 540 38,000  Level Jacksonville Center
Tue 04:59:37 PM 33.2044 -78.2008 193° South 469 540 38,000  Level Jacksonville Center
Tue 05:00:37 PM 33.0767 -78.2397 194° South 469 540 38,000  Level Jacksonville Center
Tue 05:01:37 PM 32.9506 -78.2736 193° South 469 540 38,000  Level Jacksonville Center
Tue 05:02:37 PM 32.8203 -78.3075 192° South 469 540 38,000  Level Jacksonville Center
Tue 05:03:37 PM 32.6942 -78.3433 193° South 469 540 38,000  Level Jacksonville Center
Tue 05:04:37 PM 32.5725 -78.3792 194° South 469 540 38,000  Level Jacksonville Center
Tue 05:05:37 PM 32.4483 -78.4125 193° South 469 540 38,000  Level Jacksonville Center
Tue 05:06:37 PM 32.3081 -78.4611 196° South 469 540 38,000  Level Jacksonville Center
Tue 05:07:37 PM 32.1822 -78.4967 193° South 470 541 38,000  Level Jacksonville Center
Tue 05:08:37 PM 32.0581 -78.5294 193° South 470 541 38,000  Level Jacksonville Center
Tue 05:09:37 PM 31.9319 -78.5697 195° South 470 541 38,000  Level Jacksonville Center
Tue 05:10:37 PM 31.8058 -78.6050 193° South 470 541 38,000  Level Jacksonville Center
Tue 05:11:37 PM 31.6839 -78.6400 194° South 465 535 38,000  Level Jacksonville Center
Tue 05:12:37 PM 31.5600 -78.6797 195° South 465 535 38,000  Level Jacksonville Center
Tue 05:13:37 PM 31.4358 -78.7122 193° South 472 543 38,000  Level Jacksonville Center
Tue 05:14:37 PM 31.3139 -78.7492 195° South 467 537 38,000  Level Jacksonville Center
Tue 05:15:37 PM 31.1875 -78.7789 191° South 466 536 38,000  Level Jacksonville Center
Tue 05:16:37 PM 31.0614 -78.8186 195° South 468 539 38,000  Level Jacksonville Center
Tue 05:17:37 PM 30.9394 -78.8528 194° South 467 537 38,000  Level Jacksonville Center
Tue 05:18:37 PM 30.8172 -78.8869 194° South 467 537 38,000  Level Jacksonville Center
Tue 05:19:37 PM 30.7075 -78.9158 193° South 451 519 38,000  Level Jacksonville Center
Tue 05:20:18 PM 30.6153 -78.9422 194° South 448 516 38,000  Level Miami Center
Tue 05:21:18 PM 30.4939 -78.9758 193° South 431 496 38,000  Level Miami Center
Tue 05:22:18 PM 30.3703 -79.0167 196° South 441 507 38,000  Level Miami Center
Tue 05:23:18 PM 30.2467 -79.0694 200° South 458 527 38,000  Level Miami Center
Tue 05:24:18 PM 30.1331 -79.1200 201° Southwest 458 527 38,000  Level Miami Center
Tue 05:25:18 PM 30.0386 -79.1611 201° Southwest 463 533 38,000  Level Miami Center
Tue 05:26:18 PM 29.9083 -79.2228 202° Southwest 458 527 38,000  Level Miami Center
Tue 05:27:18 PM 29.7928 -79.2778 202° Southwest 453 521 38,000  Level Miami Center
Tue 05:28:18 PM 29.6731 -79.3228 198° South 458 527 38,000  Level Miami Center
Tue 05:29:18 PM 29.5594 -79.3797 204° Southwest 453 521 38,000  Level Miami Center
Tue 05:30:18 PM 29.4400 -79.4200 196° South 453 521 38,000  Level Miami Center
Tue 05:36:20 PM 28.7830 -79.6600 196° South 424 488 38,000  Level FlightAware ADS-B
Tue 05:37:08 PM 28.6650 -79.7030 198° South 424 488 38,000  Level FlightAware ADS-B
Tue 05:37:56 PM 28.5740 -79.7580 208° Southwest 431 496 38,000  Level FlightAware ADS-B
Tue 05:38:40 PM 28.4840 -79.8100 207° Southwest 431 496 38,000  Level FlightAware ADS-B
Tue 05:39:19 PM 28.4100 -79.8530 207° Southwest 431 496 38,000  Level FlightAware ADS-B
Tue 05:39:54 PM 28.3490 -79.8890 207° Southwest 422 486 38,000  Level FlightAware ADS-B
Tue 05:40:39 PM 28.2710 -79.9350 207° Southwest 421 484 38,000  Level FlightAware ADS-B
Tue 05:41:44 PM 28.1580 -80.0040 208° Southwest 426 490 38,000  Level FlightAware ADS-B
Tue 05:42:24 PM 28.0890 -80.0470 209° Southwest 429 494 38,000  Level FlightAware ADS-B
Tue 05:43:09 PM 28.0080 -80.0980 209° Southwest 431 496 38,000  Level FlightAware ADS-B
Tue 05:43:44 PM 27.9450 -80.1390 210° Southwest 438 504 38,000  Level FlightAware ADS-B
Tue 05:44:29 PM 27.8590 -80.1720 199° South 429 494 38,000  Level FlightAware ADS-B
Tue 05:45:10 PM 27.7790 -80.1970 195° South 433 498 38,000  Level FlightAware ADS-B
Tue 05:45:54 PM 27.6900 -80.2230 195° South 436 502 38,000  Level FlightAware ADS-B
Tue 05:46:29 PM 27.6190 -80.2450 195° South 436 502 38,000  Level FlightAware ADS-B
Tue 05:47:09 PM 27.5420 -80.2680 195° South 437 503 38,000  Level FlightAware ADS-B
Tue 05:48:09 PM 27.4220 -80.3040 195° South 437 503 38,000  Level FlightAware ADS-B
Tue 05:48:44 PM 27.3510 -80.3250 195° South 433 498 38,000  Level FlightAware ADS-B
Tue 05:49:24 PM 27.2760 -80.3480 195° South 434 499 38,000  Level FlightAware ADS-B
Tue 05:50:06 PM 27.2030 -80.3700 195° South 434 499 38,000  Level FlightAware ADS-B
Tue 05:50:42 PM 27.1430 -80.3880 195° South 434 499 38,000  Level FlightAware ADS-B
Tue 05:51:30 PM 27.0640 -80.4110 195° South 434 499 38,000  Level FlightAware ADS-B
Tue 05:52:10 PM 26.9430 -80.4470 195° South 434 499 38,000  Level FlightAware ADS-B
Tue 05:53:02 PM 26.8560 -80.4730 195° South 434 499 38,000  Level FlightAware ADS-B
Tue 05:53:38 PM 26.7960 -80.4910 195° South 434 499 38,000  Level FlightAware ADS-B
Tue 05:54:26 PM 26.7170 -80.5150 195° South 434 499 38,000  Level FlightAware ADS-B
Tue 05:55:29 PM 26.5530 -80.5620 194° South 431 496 38,000  Level FlightAware ADS-B
Tue 05:56:09 PM 26.4740 -80.5850 195° South 433 498 38,000  Level FlightAware ADS-B
Tue 05:56:49 PM 26.3950 -80.6090 195° South 430 495 38,000  Level FlightAware ADS-B
Tue 05:57:34 PM 26.3070 -80.6340 194° South 433 498 38,000  Level FlightAware ADS-B
Tue 05:58:10 PM 26.2490 -80.6520 196° South 433 498 38,000  Level FlightAware ADS-B
Tue 05:59:15 PM 26.1320 -80.6860 195° South 433 498 38,000  Level FlightAware ADS-B
Tue 05:59:53 PM 26.0340 -80.7150 195° South 431 496 38,000  Level FlightAware ADS-B
Tue 06:00:28 PM 25.9640 -80.7350 194° South 440 506 38,000  Level FlightAware ADS-B
Tue 06:01:04 PM 25.8930 -80.7560 195° South 433 498 38,000  Level FlightAware ADS-B
Tue 06:01:54 PM 25.7940 -80.7840 194° South 436 502 38,000  Level FlightAware ADS-B
Tue 06:02:29 PM 25.7220 -80.8050 195° South 446 513 38,000  Level FlightAware ADS-B
Tue 06:03:09 PM 25.6430 -80.8280 195° South 446 513 38,000  Level FlightAware ADS-B
Tue 06:03:50 PM 25.5620 -80.8510 194° South 434 499 38,000  Level FlightAware ADS-B
Tue 06:04:35 PM 25.4730 -80.8770 195° South 431 496 38,000  Level FlightAware ADS-B
Tue 06:05:15 PM 25.3930 -80.9000 195° South 436 502 38,000  Level FlightAware ADS-B
Tue 06:05:55 PM 25.3170 -80.9220 195° South 436 502 38,000  Level FlightAware ADS-B
Tue 06:06:41 PM 25.2340 -80.9630 204° Southwest 420 483 38,000  Level FlightAware ADS-B
Tue 06:07:25 PM 25.1720 -81.0270 223° Southwest 424 488 38,000  Level FlightAware ADS-B
Tue 06:08:05 PM 25.1190 -81.0960 230° Southwest 425 489 38,000  Level FlightAware ADS-B
Tue 06:08:45 PM 25.0680 -81.1620 230° Southwest 429 494 38,000 -450 Level FlightAware ADS-B
Tue 06:09:25 PM 25.0150 -81.2300 229° Southwest 429 494 37,400 -977 Descending FlightAware ADS-B
Tue 06:10:11 PM 24.9580 -81.3040 230° Southwest 430 495 36,600 -1,133 Descending FlightAware ADS-B
Tue 06:10:55 PM 24.9030 -81.3740 229° Southwest 435 501 35,700 -1,000 Descending FlightAware ADS-B
Tue 06:11:41 PM 24.8620 -81.4270 230° Southwest 441 507 35,100 -1,200 Descending FlightAware ADS-B
Tue 06:12:25 PM 24.7780 -81.5350 229° Southwest 445 512 33,900 -1,341 Descending FlightAware ADS-B
Tue 06:13:06 PM 24.7230 -81.6050 229° Southwest 442 509 33,200 -1,247 Descending FlightAware ADS-B
Tue 06:13:42 PM 24.6750 -81.6660 229° Southwest 433 498 32,300 -1,575 Descending FlightAware ADS-B
Tue 06:14:26 PM 24.6160 -81.7410 229° Southwest 426 490 31,100 -809 Descending FlightAware ADS-B
Tue 06:16:03 PM 24.5070 -81.8800 229° Southwest 423 487 30,400 -1,249 Descending FlightAware ADS-B
Tue 06:17:19 PM 24.4200 -81.9900 229° Southwest 408 470 27,500 -2,162 Descending FlightAware ADS-B
Tue 06:17:54 PM 24.3560 -82.0710 229° Southwest 399 459 26,400 -1,595 Descending FlightAware ADS-B
Tue 06:18:38 PM 24.3000 -82.1420 229° Southwest 398 458 25,400 -835 Descending FlightAware ADS-B
Tue 06:19:13 PM 24.2640 -82.1880 229° Southwest 397 457 25,300 -830 Descending FlightAware ADS-B
Tue 06:20:12 PM 24.1940 -82.2760 229° Southwest 378 435 24,100 -673 Descending FlightAware ADS-B
Tue 06:21:00 PM 24.1490 -82.3360 231° Southwest 378 435 24,100 -809 Level FlightAware ADS-B
Tue 06:21:41 PM 24.0980 -82.3960 227° Southwest 374 430 22,900 -935 Descending FlightAware ADS-B
Tue 06:22:17 PM 24.0640 -82.4400 230° Southwest 374 430 22,900  Level FlightAware ADS-B
Tue 06:23:05 PM 24.0170 -82.4980 228° Southwest 374 430 22,900  Level FlightAware ADS-B
Tue 06:23:42 PM 23.9820 -82.5430 230° Southwest 374 430 22,900  Level FlightAware ADS-B
Tue 06:24:30 PM 23.9350 -82.6010 228° Southwest 374 430 22,900  Level FlightAware ADS-B
Tue 06:25:07 PM 23.8990 -82.6460 229° Southwest 374 430 22,900  Level FlightAware ADS-B
Tue 06:29:00 PM 23.4665 -82.5330 172° South  Level Estimated
Tue 06:30:00 PM 23.3552 -82.5040 175° South  Level Estimated
Tue 06:31:00 PM 23.2561 -82.4415 150° Southeast  Level FlightAware Approximate
Tue 06:32:00 PM 23.1423 -82.4277 170° South  Level Estimated
Tue 06:33:00 PM 23.0285 -82.4138 180° South  Level Estimated
Tue 06:34:00 PM 22.9891 -82.4091 180° South  Level Estimated
Tue 06:35:00 PM 22.9891 -82.4091 180° South  Level Estimated
Tue 06:36:00 PM 22.9891 -82.4091 180° South  Level Estimated
Tue 06:37:00 PM 22.9891 -82.4091 180° South  Level Estimated
Tue 06:38:00 PM 22.9891 -82.4091 180° South  Level Estimated
Tue 06:39:00 PM 22.9891 -82.4091 180° South  Level Estimated
Tue 06:40:00 PM 22.9891 -82.4091 180° South  Level Estimated
Tue 06:41:00 PM 22.9891 -82.4091 180° South  Level Estimated
Tue 06:42:00 PM 22.9891 -82.4091 180° South  Level Estimated
Tue 06:43:00 PM 22.9891 -82.4091 180° South  Level Estimated
Tue 06:44:00 PM 22.9891 -82.4091 180° South  Level Estimated
Tue 06:45:00 PM 22.9891 -82.4091 180° South  Level Estimated
Tue 06:46:00 PM 22.9891 -82.4091 180° South  Level Estimated
Tue 06:47:00 PM 22.9891 -82.4091 180° South  Level Estimated
Tue 06:48:00 PM 22.9891 -82.4091 180° South  Level Estimated
Tue 06:49:00 PM 22.9891 -82.4091 180° South  Level Estimated
Tue 06:50:00 PM 22.9891 -82.4091 180° South  Level Estimated
Tue 06:51:00 PM 22.9891 -82.4091 180° South  Level Estimated

Login

Don't have an account? Register now (free) for customized features, flight alerts, and more!